sensor_id;sensor_type;location;lat;lon;timestamp;temperature;humidity
44111;DHT22;29774;52.664;5.074;2022-08-01T00:02:04;20.60;80.50
44111;DHT22;29774;52.664;5.074;2022-08-01T00:04:30;20.60;81.80
44111;DHT22;29774;52.664;5.074;2022-08-01T00:06:56;20.30;80.70
44111;DHT22;29774;52.664;5.074;2022-08-01T00:09:21;20.60;81.70
44111;DHT22;29774;52.664;5.074;2022-08-01T00:11:47;20.20;83.10
44111;DHT22;29774;52.664;5.074;2022-08-01T00:14:12;21.50;75.20
44111;DHT22;29774;52.664;5.074;2022-08-01T00:16:38;21.10;78.60
44111;DHT22;29774;52.664;5.074;2022-08-01T00:19:04;21.70;74.90
44111;DHT22;29774;52.664;5.074;2022-08-01T00:21:29;20.70;79.70
44111;DHT22;29774;52.664;5.074;2022-08-01T00:23:55;21.90;73.90
44111;DHT22;29774;52.664;5.074;2022-08-01T00:26:20;22.20;74.10
44111;DHT22;29774;52.664;5.074;2022-08-01T00:28:46;22.20;73.90
44111;DHT22;29774;52.664;5.074;2022-08-01T00:31:11;21.80;73.60
44111;DHT22;29774;52.664;5.074;2022-08-01T00:33:37;21.70;75.80
44111;DHT22;29774;52.664;5.074;2022-08-01T00:36:03;21.30;76.50
44111;DHT22;29774;52.664;5.074;2022-08-01T00:38:28;21.40;76.20
44111;DHT22;29774;52.664;5.074;2022-08-01T00:40:54;20.20;81.90
44111;DHT22;29774;52.664;5.074;2022-08-01T00:43:20;20.00;82.60
44111;DHT22;29774;52.664;5.074;2022-08-01T00:45:45;21.00;77.80
44111;DHT22;29774;52.664;5.074;2022-08-01T00:48:11;20.80;78.00
44111;DHT22;29774;52.664;5.074;2022-08-01T00:50:36;19.90;83.10
44111;DHT22;29774;52.664;5.074;2022-08-01T00:53:03;19.60;84.80
44111;DHT22;29774;52.664;5.074;2022-08-01T00:55:31;19.70;84.60
44111;DHT22;29774;52.664;5.074;2022-08-01T00:57:57;19.90;83.40
44111;DHT22;29774;52.664;5.074;2022-08-01T01:00:23;19.70;84.60
44111;DHT22;29774;52.664;5.074;2022-08-01T01:02:49;19.40;85.60
44111;DHT22;29774;52.664;5.074;2022-08-01T01:05:15;19.50;85.50
44111;DHT22;29774;52.664;5.074;2022-08-01T01:08:08;20.40;80.30
44111;DHT22;29774;52.664;5.074;2022-08-01T01:10:46;21.40;75.50
44111;DHT22;29774;52.664;5.074;2022-08-01T01:13:23;21.00;78.70
44111;DHT22;29774;52.664;5.074;2022-08-01T01:15:58;20.50;80.30
44111;DHT22;29774;52.664;5.074;2022-08-01T01:18:30;20.40;80.80
44111;DHT22;29774;52.664;5.074;2022-08-01T01:29:35;19.10;87.80
44111;DHT22;29774;52.664;5.074;2022-08-01T01:32:19;19.10;86.90
44111;DHT22;29774;52.664;5.074;2022-08-01T01:34:48;19.00;87.90
44111;DHT22;29774;52.664;5.074;2022-08-01T01:37:18;18.80;88.80
44111;DHT22;29774;52.664;5.074;2022-08-01T01:39:49;18.70;89.50
44111;DHT22;29774;52.664;5.074;2022-08-01T01:42:17;18.70;89.90
44111;DHT22;29774;52.664;5.074;2022-08-01T01:44:43;18.70;89.90
44111;DHT22;29774;52.664;5.074;2022-08-01T01:47:12;18.60;90.00
44111;DHT22;29774;52.664;5.074;2022-08-01T01:49:39;19.20;87.20
44111;DHT22;29774;52.664;5.074;2022-08-01T01:52:07;19.80;83.80
44111;DHT22;29774;52.664;5.074;2022-08-01T01:54:36;19.60;84.50
44111;DHT22;29774;52.664;5.074;2022-08-01T01:57:03;20.50;81.20
44111;DHT22;29774;52.664;5.074;2022-08-01T01:59:33;20.40;81.50
44111;DHT22;29774;52.664;5.074;2022-08-01T02:02:02;22.20;73.20
44111;DHT22;29774;52.664;5.074;2022-08-01T02:04:29;22.70;70.80
44111;DHT22;29774;52.664;5.074;2022-08-01T02:06:56;22.60;70.50
44111;DHT22;29774;52.664;5.074;2022-08-01T02:09:23;22.70;69.50
44111;DHT22;29774;52.664;5.074;2022-08-01T02:11:53;22.60;70.50
44111;DHT22;29774;52.664;5.074;2022-08-01T02:14:19;22.20;71.70
44111;DHT22;29774;52.664;5.074;2022-08-01T02:16:48;21.10;76.80
44111;DHT22;29774;52.664;5.074;2022-08-01T02:19:18;20.10;81.10
44111;DHT22;29774;52.664;5.074;2022-08-01T02:22:29;19.40;84.20
44111;DHT22;29774;52.664;5.074;2022-08-01T02:30:33;18.70;88.00
44111;DHT22;29774;52.664;5.074;2022-08-01T02:33:05;18.70;88.40
44111;DHT22;29774;52.664;5.074;2022-08-01T02:35:34;18.70;88.40
44111;DHT22;29774;52.664;5.074;2022-08-01T02:38:03;18.60;88.60
44111;DHT22;29774;52.664;5.074;2022-08-01T02:40:33;18.40;89.20
44111;DHT22;29774;52.664;5.074;2022-08-01T02:43:02;18.30;89.80
44111;DHT22;29774;52.664;5.074;2022-08-01T02:45:29;19.00;88.70
44111;DHT22;29774;52.664;5.074;2022-08-01T02:47:59;18.70;88.60
44111;DHT22;29774;52.664;5.074;2022-08-01T02:50:27;18.50;89.60
44111;DHT22;29774;52.664;5.074;2022-08-01T02:52:54;18.40;90.10
44111;DHT22;29774;52.664;5.074;2022-08-01T02:55:20;18.30;90.40
44111;DHT22;29774;52.664;5.074;2022-08-01T02:57:48;18.30;90.60
44111;DHT22;29774;52.664;5.074;2022-08-01T03:00:16;18.30;90.70
44111;DHT22;29774;52.664;5.074;2022-08-01T03:02:44;18.30;91.00
44111;DHT22;29774;52.664;5.074;2022-08-01T03:05:11;18.30;91.20
44111;DHT22;29774;52.664;5.074;2022-08-01T03:07:38;18.30;91.20
44111;DHT22;29774;52.664;5.074;2022-08-01T03:10:05;18.30;91.30
44111;DHT22;29774;52.664;5.074;2022-08-01T03:12:33;18.40;91.10
44111;DHT22;29774;52.664;5.074;2022-08-01T03:14:59;18.40;90.70
44111;DHT22;29774;52.664;5.074;2022-08-01T03:17:28;18.50;90.10
44111;DHT22;29774;52.664;5.074;2022-08-01T03:19:54;18.40;90.50
44111;DHT22;29774;52.664;5.074;2022-08-01T03:22:23;18.30;91.00
44111;DHT22;29774;52.664;5.074;2022-08-01T03:24:52;18.30;91.20
44111;DHT22;29774;52.664;5.074;2022-08-01T03:27:21;18.20;91.40
44111;DHT22;29774;52.664;5.074;2022-08-01T03:29:48;18.30;91.20
44111;DHT22;29774;52.664;5.074;2022-08-01T03:32:15;18.50;91.50
44111;DHT22;29774;52.664;5.074;2022-08-01T03:34:41;19.70;84.80
44111;DHT22;29774;52.664;5.074;2022-08-01T03:37:11;21.50;75.70
44111;DHT22;29774;52.664;5.074;2022-08-01T03:39:44;22.00;73.00
44111;DHT22;29774;52.664;5.074;2022-08-01T03:42:19;21.90;73.00
44111;DHT22;29774;52.664;5.074;2022-08-01T03:44:53;21.20;77.40
44111;DHT22;29774;52.664;5.074;2022-08-01T03:47:21;21.30;75.70
44111;DHT22;29774;52.664;5.074;2022-08-01T03:49:48;22.20;73.00
44111;DHT22;29774;52.664;5.074;2022-08-01T03:52:15;22.00;73.10
44111;DHT22;29774;52.664;5.074;2022-08-01T03:54:46;22.50;70.40
44111;DHT22;29774;52.664;5.074;2022-08-01T03:57:13;22.20;71.10
44111;DHT22;29774;52.664;5.074;2022-08-01T03:59:39;22.10;72.50
44111;DHT22;29774;52.664;5.074;2022-08-01T04:02:06;21.10;76.30
44111;DHT22;29774;52.664;5.074;2022-08-01T04:04:32;21.50;74.60
44111;DHT22;29774;52.664;5.074;2022-08-01T04:06:58;21.90;72.10
44111;DHT22;29774;52.664;5.074;2022-08-01T04:09:32;22.00;72.10
44111;DHT22;29774;52.664;5.074;2022-08-01T04:11:59;21.90;71.70
44111;DHT22;29774;52.664;5.074;2022-08-01T04:14:26;21.80;72.80
44111;DHT22;29774;52.664;5.074;2022-08-01T04:16:52;21.50;73.60
44111;DHT22;29774;52.664;5.074;2022-08-01T04:19:18;21.60;73.20
44111;DHT22;29774;52.664;5.074;2022-08-01T04:21:44;22.60;69.70
44111;DHT22;29774;52.664;5.074;2022-08-01T04:24:12;22.50;69.70
44111;DHT22;29774;52.664;5.074;2022-08-01T04:26:40;22.50;69.80
44111;DHT22;29774;52.664;5.074;2022-08-01T04:29:08;22.70;68.60
44111;DHT22;29774;52.664;5.074;2022-08-01T04:31:36;22.90;67.40
44111;DHT22;29774;52.664;5.074;2022-08-01T04:34:04;23.30;66.30
44111;DHT22;29774;52.664;5.074;2022-08-01T04:36:33;23.30;65.90
44111;DHT22;29774;52.664;5.074;2022-08-01T04:39:01;23.30;66.00
44111;DHT22;29774;52.664;5.074;2022-08-01T04:41:27;22.60;68.40
44111;DHT22;29774;52.664;5.074;2022-08-01T04:43:55;22.50;68.50
44111;DHT22;29774;52.664;5.074;2022-08-01T04:46:24;22.40;68.90
44111;DHT22;29774;52.664;5.074;2022-08-01T04:48:50;22.70;68.20
44111;DHT22;29774;52.664;5.074;2022-08-01T04:51:17;23.20;66.40
44111;DHT22;29774;52.664;5.074;2022-08-01T04:53:45;23.20;66.20
44111;DHT22;29774;52.664;5.074;2022-08-01T04:56:12;23.40;65.40
44111;DHT22;29774;52.664;5.074;2022-08-01T04:58:41;22.80;67.30
44111;DHT22;29774;52.664;5.074;2022-08-01T05:01:07;22.70;67.70
44111;DHT22;29774;52.664;5.074;2022-08-01T05:03:33;23.10;66.20
44111;DHT22;29774;52.664;5.074;2022-08-01T05:05:58;23.00;66.10
44111;DHT22;29774;52.664;5.074;2022-08-01T05:08:24;23.20;65.70
44111;DHT22;29774;52.664;5.074;2022-08-01T05:10:50;22.50;67.70
44111;DHT22;29774;52.664;5.074;2022-08-01T05:13:15;22.80;66.70
44111;DHT22;29774;52.664;5.074;2022-08-01T05:15:41;22.70;67.10
44111;DHT22;29774;52.664;5.074;2022-08-01T05:18:07;22.50;67.80
44111;DHT22;29774;52.664;5.074;2022-08-01T05:20:33;22.40;68.00
44111;DHT22;29774;52.664;5.074;2022-08-01T05:22:59;22.50;67.90
44111;DHT22;29774;52.664;5.074;2022-08-01T05:25:24;22.50;67.90
44111;DHT22;29774;52.664;5.074;2022-08-01T05:27:50;22.70;66.90
44111;DHT22;29774;52.664;5.074;2022-08-01T05:30:15;22.50;67.90
44111;DHT22;29774;52.664;5.074;2022-08-01T05:32:41;22.20;68.80
44111;DHT22;29774;52.664;5.074;2022-08-01T05:35:08;22.60;66.80
44111;DHT22;29774;52.664;5.074;2022-08-01T05:37:34;22.50;66.90
44111;DHT22;29774;52.664;5.074;2022-08-01T05:39:59;22.40;67.50
44111;DHT22;29774;52.664;5.074;2022-08-01T05:42:25;22.50;67.00
44111;DHT22;29774;52.664;5.074;2022-08-01T05:44:51;22.30;67.00
44111;DHT22;29774;52.664;5.074;2022-08-01T05:47:17;22.00;67.90
44111;DHT22;29774;52.664;5.074;2022-08-01T05:49:43;22.20;67.40
44111;DHT22;29774;52.664;5.074;2022-08-01T05:52:09;22.40;67.00
44111;DHT22;29774;52.664;5.074;2022-08-01T05:54:35;22.30;65.50
44111;DHT22;29774;52.664;5.074;2022-08-01T05:57:00;22.10;67.90
44111;DHT22;29774;52.664;5.074;2022-08-01T05:59:27;21.20;69.50
44111;DHT22;29774;52.664;5.074;2022-08-01T06:01:53;21.90;69.00
44111;DHT22;29774;52.664;5.074;2022-08-01T06:04:19;22.30;67.00
44111;DHT22;29774;52.664;5.074;2022-08-01T06:06:44;22.30;66.30
44111;DHT22;29774;52.664;5.074;2022-08-01T06:09:10;22.10;67.30
44111;DHT22;29774;52.664;5.074;2022-08-01T06:11:35;21.40;70.40
44111;DHT22;29774;52.664;5.074;2022-08-01T06:14:01;21.30;70.70
44111;DHT22;29774;52.664;5.074;2022-08-01T06:16:27;22.10;67.30
44111;DHT22;29774;52.664;5.074;2022-08-01T06:18:52;22.40;65.40
44111;DHT22;29774;52.664;5.074;2022-08-01T06:21:18;21.80;68.60
44111;DHT22;29774;52.664;5.074;2022-08-01T06:23:44;22.30;66.80
44111;DHT22;29774;52.664;5.074;2022-08-01T06:26:09;22.50;65.90
44111;DHT22;29774;52.664;5.074;2022-08-01T06:28:36;22.50;65.90
44111;DHT22;29774;52.664;5.074;2022-08-01T06:31:01;22.20;67.00
44111;DHT22;29774;52.664;5.074;2022-08-01T06:33:27;22.30;66.50
44111;DHT22;29774;52.664;5.074;2022-08-01T06:35:53;22.20;66.50
44111;DHT22;29774;52.664;5.074;2022-08-01T06:38:19;22.50;65.70
44111;DHT22;29774;52.664;5.074;2022-08-01T06:40:44;22.50;64.80
44111;DHT22;29774;52.664;5.074;2022-08-01T06:43:10;22.10;66.20
44111;DHT22;29774;52.664;5.074;2022-08-01T06:45:37;22.20;67.10
44111;DHT22;29774;52.664;5.074;2022-08-01T06:48:03;21.70;67.00
44111;DHT22;29774;52.664;5.074;2022-08-01T06:50:29;22.40;66.00
44111;DHT22;29774;52.664;5.074;2022-08-01T06:52:55;22.60;65.30
44111;DHT22;29774;52.664;5.074;2022-08-01T06:55:21;22.20;65.70
44111;DHT22;29774;52.664;5.074;2022-08-01T06:57:48;21.90;66.50
44111;DHT22;29774;52.664;5.074;2022-08-01T07:00:15;21.60;65.50
44111;DHT22;29774;52.664;5.074;2022-08-01T07:02:42;22.20;65.10
44111;DHT22;29774;52.664;5.074;2022-08-01T07:05:07;22.50;65.00
44111;DHT22;29774;52.664;5.074;2022-08-01T07:07:34;22.30;65.40
44111;DHT22;29774;52.664;5.074;2022-08-01T07:09:59;22.50;64.60
44111;DHT22;29774;52.664;5.074;2022-08-01T07:12:25;22.50;64.70
44111;DHT22;29774;52.664;5.074;2022-08-01T07:14:51;22.60;63.20
44111;DHT22;29774;52.664;5.074;2022-08-01T07:17:16;22.60;64.30
44111;DHT22;29774;52.664;5.074;2022-08-01T07:19:42;22.30;65.10
44111;DHT22;29774;52.664;5.074;2022-08-01T07:22:07;22.40;64.80
44111;DHT22;29774;52.664;5.074;2022-08-01T07:24:33;22.20;64.90
44111;DHT22;29774;52.664;5.074;2022-08-01T07:26:58;22.40;64.50
44111;DHT22;29774;52.664;5.074;2022-08-01T07:29:25;22.30;61.20
44111;DHT22;29774;52.664;5.074;2022-08-01T07:31:55;22.20;63.90
44111;DHT22;29774;52.664;5.074;2022-08-01T07:34:22;22.70;63.60
44111;DHT22;29774;52.664;5.074;2022-08-01T07:36:48;22.60;63.60
44111;DHT22;29774;52.664;5.074;2022-08-01T07:39:13;22.70;62.40
44111;DHT22;29774;52.664;5.074;2022-08-01T07:41:39;22.70;62.40
44111;DHT22;29774;52.664;5.074;2022-08-01T07:44:04;22.60;63.50
44111;DHT22;29774;52.664;5.074;2022-08-01T07:46:30;22.80;62.90
44111;DHT22;29774;52.664;5.074;2022-08-01T07:48:56;23.00;63.00
44111;DHT22;29774;52.664;5.074;2022-08-01T07:51:22;23.10;61.90
44111;DHT22;29774;52.664;5.074;2022-08-01T07:53:48;23.20;61.20
44111;DHT22;29774;52.664;5.074;2022-08-01T07:56:13;22.90;62.50
44111;DHT22;29774;52.664;5.074;2022-08-01T07:58:39;22.70;63.20
44111;DHT22;29774;52.664;5.074;2022-08-01T08:01:04;23.20;61.70
44111;DHT22;29774;52.664;5.074;2022-08-01T08:03:30;23.30;61.40
44111;DHT22;29774;52.664;5.074;2022-08-01T08:05:56;23.40;61.10
44111;DHT22;29774;52.664;5.074;2022-08-01T08:08:21;23.30;61.40
44111;DHT22;29774;52.664;5.074;2022-08-01T08:11:24;23.40;60.80
44111;DHT22;29774;52.664;5.074;2022-08-01T08:13:50;23.20;61.00
44111;DHT22;29774;52.664;5.074;2022-08-01T08:16:15;23.20;59.80
44111;DHT22;29774;52.664;5.074;2022-08-01T08:18:41;23.50;60.70
44111;DHT22;29774;52.664;5.074;2022-08-01T08:21:07;23.30;61.10
44111;DHT22;29774;52.664;5.074;2022-08-01T08:23:32;23.40;60.70
44111;DHT22;29774;52.664;5.074;2022-08-01T08:26:16;23.60;60.10
44111;DHT22;29774;52.664;5.074;2022-08-01T08:28:42;23.50;60.20
44111;DHT22;29774;52.664;5.074;2022-08-01T08:31:08;23.50;60.10
44111;DHT22;29774;52.664;5.074;2022-08-01T08:33:33;23.50;60.00
44111;DHT22;29774;52.664;5.074;2022-08-01T08:35:59;23.40;60.10
44111;DHT22;29774;52.664;5.074;2022-08-01T08:38:24;23.00;59.80
44111;DHT22;29774;52.664;5.074;2022-08-01T08:40:52;23.00;58.10
44111;DHT22;29774;52.664;5.074;2022-08-01T08:43:18;23.00;59.40
44111;DHT22;29774;52.664;5.074;2022-08-01T08:45:45;23.30;60.90
44111;DHT22;29774;52.664;5.074;2022-08-01T08:48:12;23.30;60.60
44111;DHT22;29774;52.664;5.074;2022-08-01T08:50:38;23.50;59.50
44111;DHT22;29774;52.664;5.074;2022-08-01T08:53:04;23.70;59.80
44111;DHT22;29774;52.664;5.074;2022-08-01T08:55:30;23.70;58.00
44111;DHT22;29774;52.664;5.074;2022-08-01T08:57:56;23.90;59.10
44111;DHT22;29774;52.664;5.074;2022-08-01T09:00:23;23.70;59.10
44111;DHT22;29774;52.664;5.074;2022-08-01T09:02:48;23.80;59.10
44111;DHT22;29774;52.664;5.074;2022-08-01T09:05:14;23.80;59.10
44111;DHT22;29774;52.664;5.074;2022-08-01T09:07:40;23.50;58.60
44111;DHT22;29774;52.664;5.074;2022-08-01T09:10:07;23.10;56.70
44111;DHT22;29774;52.664;5.074;2022-08-01T09:12:32;23.50;59.30
44111;DHT22;29774;52.664;5.074;2022-08-01T09:14:58;23.40;57.60
44111;DHT22;29774;52.664;5.074;2022-08-01T09:17:24;23.50;58.40
44111;DHT22;29774;52.664;5.074;2022-08-01T09:19:54;23.70;57.50
44111;DHT22;29774;52.664;5.074;2022-08-01T09:22:24;23.50;57.10
44111;DHT22;29774;52.664;5.074;2022-08-01T09:25:02;23.70;58.20
44111;DHT22;29774;52.664;5.074;2022-08-01T09:27:29;23.80;58.50
44111;DHT22;29774;52.664;5.074;2022-08-01T09:29:55;23.80;57.60
44111;DHT22;29774;52.664;5.074;2022-08-01T09:32:31;23.70;57.50
44111;DHT22;29774;52.664;5.074;2022-08-01T09:34:57;23.70;57.00
44111;DHT22;29774;52.664;5.074;2022-08-01T09:37:30;23.30;56.20
44111;DHT22;29774;52.664;5.074;2022-08-01T09:39:55;23.60;57.10
44111;DHT22;29774;52.664;5.074;2022-08-01T09:42:26;23.90;58.00
44111;DHT22;29774;52.664;5.074;2022-08-01T09:44:53;23.80;56.00
44111;DHT22;29774;52.664;5.074;2022-08-01T09:47:19;23.50;58.40
44111;DHT22;29774;52.664;5.074;2022-08-01T09:49:55;23.80;57.60
44111;DHT22;29774;52.664;5.074;2022-08-01T09:52:24;23.60;57.80
44111;DHT22;29774;52.664;5.074;2022-08-01T09:55:04;23.80;57.80
44111;DHT22;29774;52.664;5.074;2022-08-01T09:57:30;23.60;58.70
44111;DHT22;29774;52.664;5.074;2022-08-01T09:59:58;23.70;58.30
44111;DHT22;29774;52.664;5.074;2022-08-01T10:02:37;24.00;57.70
44111;DHT22;29774;52.664;5.074;2022-08-01T10:05:06;23.60;58.70
44111;DHT22;29774;52.664;5.074;2022-08-01T10:07:32;23.70;56.20
44111;DHT22;29774;52.664;5.074;2022-08-01T10:10:13;23.80;57.50
44111;DHT22;29774;52.664;5.074;2022-08-01T10:12:40;23.90;58.00
44111;DHT22;29774;52.664;5.074;2022-08-01T10:15:06;24.00;57.50
44111;DHT22;29774;52.664;5.074;2022-08-01T10:17:34;23.80;57.90
44111;DHT22;29774;52.664;5.074;2022-08-01T10:20:01;23.70;58.30
44111;DHT22;29774;52.664;5.074;2022-08-01T10:22:27;23.90;57.00
44111;DHT22;29774;52.664;5.074;2022-08-01T10:24:56;23.90;55.20
44111;DHT22;29774;52.664;5.074;2022-08-01T10:27:23;24.00;57.00
44111;DHT22;29774;52.664;5.074;2022-08-01T10:29:56;23.20;57.70
44111;DHT22;29774;52.664;5.074;2022-08-01T10:32:23;23.50;57.20
44111;DHT22;29774;52.664;5.074;2022-08-01T10:34:49;23.90;57.80
44111;DHT22;29774;52.664;5.074;2022-08-01T10:37:16;23.90;56.70
44111;DHT22;29774;52.664;5.074;2022-08-01T10:39:42;23.70;55.80
44111;DHT22;29774;52.664;5.074;2022-08-01T10:42:10;23.70;55.70
44111;DHT22;29774;52.664;5.074;2022-08-01T10:44:36;23.50;58.70
44111;DHT22;29774;52.664;5.074;2022-08-01T10:47:11;23.50;54.80
44111;DHT22;29774;52.664;5.074;2022-08-01T10:49:47;22.90;58.90
44111;DHT22;29774;52.664;5.074;2022-08-01T10:52:17;23.20;58.60
44111;DHT22;29774;52.664;5.074;2022-08-01T10:54:42;23.20;59.10
44111;DHT22;29774;52.664;5.074;2022-08-01T10:57:08;23.40;54.80
44111;DHT22;29774;52.664;5.074;2022-08-01T10:59:36;23.80;58.00
44111;DHT22;29774;52.664;5.074;2022-08-01T11:02:29;23.70;58.10
44111;DHT22;29774;52.664;5.074;2022-08-01T11:05:02;23.70;58.20
44111;DHT22;29774;52.664;5.074;2022-08-01T11:07:52;23.60;57.20
44111;DHT22;29774;52.664;5.074;2022-08-01T11:10:25;23.70;56.30
44111;DHT22;29774;52.664;5.074;2022-08-01T11:12:55;23.70;57.30
44111;DHT22;29774;52.664;5.074;2022-08-01T11:15:22;24.00;52.50
44111;DHT22;29774;52.664;5.074;2022-08-01T11:17:53;23.50;56.90
44111;DHT22;29774;52.664;5.074;2022-08-01T11:20:30;24.00;54.90
44111;DHT22;29774;52.664;5.074;2022-08-01T11:30:54;24.60;51.60
44111;DHT22;29774;52.664;5.074;2022-08-01T11:43:35;24.30;49.30
44111;DHT22;29774;52.664;5.074;2022-08-01T11:46:01;24.60;49.30
44111;DHT22;29774;52.664;5.074;2022-08-01T11:48:27;24.70;54.70
44111;DHT22;29774;52.664;5.074;2022-08-01T11:50:57;24.50;54.40
44111;DHT22;29774;52.664;5.074;2022-08-01T11:53:22;24.40;53.90
44111;DHT22;29774;52.664;5.074;2022-08-01T11:55:49;24.40;54.50
44111;DHT22;29774;52.664;5.074;2022-08-01T11:58:16;24.60;53.00
44111;DHT22;29774;52.664;5.074;2022-08-01T12:00:41;24.60;51.10
44111;DHT22;29774;52.664;5.074;2022-08-01T12:03:14;24.60;55.00
44111;DHT22;29774;52.664;5.074;2022-08-01T12:05:43;24.70;54.60
44111;DHT22;29774;52.664;5.074;2022-08-01T12:08:09;24.60;53.90
44111;DHT22;29774;52.664;5.074;2022-08-01T12:10:35;24.40;53.20
44111;DHT22;29774;52.664;5.074;2022-08-01T12:13:43;24.30;54.30
44111;DHT22;29774;52.664;5.074;2022-08-01T12:16:10;24.50;54.50
44111;DHT22;29774;52.664;5.074;2022-08-01T12:18:41;24.30;51.40
44111;DHT22;29774;52.664;5.074;2022-08-01T12:21:06;24.50;54.90
44111;DHT22;29774;52.664;5.074;2022-08-01T12:23:32;24.00;56.20
44111;DHT22;29774;52.664;5.074;2022-08-01T12:25:57;24.30;54.30
44111;DHT22;29774;52.664;5.074;2022-08-01T12:28:41;24.50;52.60
44111;DHT22;29774;52.664;5.074;2022-08-01T12:31:07;24.50;53.90
44111;DHT22;29774;52.664;5.074;2022-08-01T12:33:32;24.50;51.10
44111;DHT22;29774;52.664;5.074;2022-08-01T12:35:58;24.60;50.60
44111;DHT22;29774;52.664;5.074;2022-08-01T12:38:23;24.70;53.50
44111;DHT22;29774;52.664;5.074;2022-08-01T12:40:52;24.70;54.20
44111;DHT22;29774;52.664;5.074;2022-08-01T12:43:35;24.70;54.30
44111;DHT22;29774;52.664;5.074;2022-08-01T12:46:01;24.80;54.20
44111;DHT22;29774;52.664;5.074;2022-08-01T12:48:28;24.80;54.10
44111;DHT22;29774;52.664;5.074;2022-08-01T12:50:58;24.80;50.20
44111;DHT22;29774;52.664;5.074;2022-08-01T12:53:26;24.80;53.60
44111;DHT22;29774;52.664;5.074;2022-08-01T12:55:53;24.90;53.80
44111;DHT22;29774;52.664;5.074;2022-08-01T12:58:20;24.90;54.00
44111;DHT22;29774;52.664;5.074;2022-08-01T13:00:48;25.20;45.80
44111;DHT22;29774;52.664;5.074;2022-08-01T13:03:16;25.20;52.70
44111;DHT22;29774;52.664;5.074;2022-08-01T13:05:44;24.90;53.60
44111;DHT22;29774;52.664;5.074;2022-08-01T13:08:12;25.00;53.70
44111;DHT22;29774;52.664;5.074;2022-08-01T13:10:38;25.10;52.30
44111;DHT22;29774;52.664;5.074;2022-08-01T13:13:04;25.10;52.40
44111;DHT22;29774;52.664;5.074;2022-08-01T13:15:38;25.10;51.70
44111;DHT22;29774;52.664;5.074;2022-08-01T13:18:28;25.10;52.80
44111;DHT22;29774;52.664;5.074;2022-08-01T13:21:15;25.10;50.70
44111;DHT22;29774;52.664;5.074;2022-08-01T13:23:59;25.10;51.10
44111;DHT22;29774;52.664;5.074;2022-08-01T13:26:44;24.90;52.70
44111;DHT22;29774;52.664;5.074;2022-08-01T13:29:12;25.00;53.50
44111;DHT22;29774;52.664;5.074;2022-08-01T13:31:38;25.10;51.70
44111;DHT22;29774;52.664;5.074;2022-08-01T13:34:05;24.90;52.40
44111;DHT22;29774;52.664;5.074;2022-08-01T13:36:31;24.90;53.00
44111;DHT22;29774;52.664;5.074;2022-08-01T13:38:58;25.00;53.30
44111;DHT22;29774;52.664;5.074;2022-08-01T13:41:43;24.80;52.20
44111;DHT22;29774;52.664;5.074;2022-08-01T13:44:10;24.80;53.90
44111;DHT22;29774;52.664;5.074;2022-08-01T13:46:39;24.90;49.20
44111;DHT22;29774;52.664;5.074;2022-08-01T13:49:06;24.80;48.60
44111;DHT22;29774;52.664;5.074;2022-08-01T13:51:33;24.70;51.60
44111;DHT22;29774;52.664;5.074;2022-08-01T13:53:59;24.70;53.60
44111;DHT22;29774;52.664;5.074;2022-08-01T13:56:25;24.80;52.40
44111;DHT22;29774;52.664;5.074;2022-08-01T13:58:53;24.90;48.30
44111;DHT22;29774;52.664;5.074;2022-08-01T14:01:18;24.70;47.50
44111;DHT22;29774;52.664;5.074;2022-08-01T14:03:44;25.00;52.90
44111;DHT22;29774;52.664;5.074;2022-08-01T14:06:10;24.70;53.60
44111;DHT22;29774;52.664;5.074;2022-08-01T14:08:36;24.80;53.50
44111;DHT22;29774;52.664;5.074;2022-08-01T14:11:01;24.70;53.30
44111;DHT22;29774;52.664;5.074;2022-08-01T14:13:27;24.50;51.70
44111;DHT22;29774;52.664;5.074;2022-08-01T14:15:53;24.20;49.70
44111;DHT22;29774;52.664;5.074;2022-08-01T14:18:18;23.80;50.80
44111;DHT22;29774;52.664;5.074;2022-08-01T14:20:44;23.50;50.70
44111;DHT22;29774;52.664;5.074;2022-08-01T14:23:10;22.90;52.50
44111;DHT22;29774;52.664;5.074;2022-08-01T14:25:40;23.50;50.40
44111;DHT22;29774;52.664;5.074;2022-08-01T14:28:06;23.70;50.70
44111;DHT22;29774;52.664;5.074;2022-08-01T14:30:32;24.20;49.90
44111;DHT22;29774;52.664;5.074;2022-08-01T14:32:58;23.10;47.90
44111;DHT22;29774;52.664;5.074;2022-08-01T14:35:24;23.70;51.70
44111;DHT22;29774;52.664;5.074;2022-08-01T14:37:50;23.70;51.60
44111;DHT22;29774;52.664;5.074;2022-08-01T14:40:15;23.70;51.90
44111;DHT22;29774;52.664;5.074;2022-08-01T14:42:41;23.50;48.90
44111;DHT22;29774;52.664;5.074;2022-08-01T14:45:08;22.70;53.50
44111;DHT22;29774;52.664;5.074;2022-08-01T14:47:36;22.80;53.40
44111;DHT22;29774;52.664;5.074;2022-08-01T14:50:06;23.30;48.40
44111;DHT22;29774;52.664;5.074;2022-08-01T14:52:33;22.20;55.80
44111;DHT22;29774;52.664;5.074;2022-08-01T14:54:58;22.70;55.10
44111;DHT22;29774;52.664;5.074;2022-08-01T14:57:24;23.00;51.60
44111;DHT22;29774;52.664;5.074;2022-08-01T14:59:50;22.70;53.40
44111;DHT22;29774;52.664;5.074;2022-08-01T15:02:16;22.70;55.40
44111;DHT22;29774;52.664;5.074;2022-08-01T15:04:43;23.30;54.50
44111;DHT22;29774;52.664;5.074;2022-08-01T15:07:10;23.70;52.10
44111;DHT22;29774;52.664;5.074;2022-08-01T15:09:36;23.30;49.60
44111;DHT22;29774;52.664;5.074;2022-08-01T15:12:02;22.50;49.60
44111;DHT22;29774;52.664;5.074;2022-08-01T15:14:27;23.00;51.60
44111;DHT22;29774;52.664;5.074;2022-08-01T15:17:12;22.80;48.20
44111;DHT22;29774;52.664;5.074;2022-08-01T15:19:37;22.80;54.90
44111;DHT22;29774;52.664;5.074;2022-08-01T15:22:03;22.90;54.90
44111;DHT22;29774;52.664;5.074;2022-08-01T15:24:29;23.40;53.80
44111;DHT22;29774;52.664;5.074;2022-08-01T15:26:54;22.30;50.10
44111;DHT22;29774;52.664;5.074;2022-08-01T15:29:20;22.90;55.90
44111;DHT22;29774;52.664;5.074;2022-08-01T15:31:45;22.60;51.40
44111;DHT22;29774;52.664;5.074;2022-08-01T15:34:11;22.60;49.30
44111;DHT22;29774;52.664;5.074;2022-08-01T15:36:37;22.70;55.80
44111;DHT22;29774;52.664;5.074;2022-08-01T15:39:02;22.60;49.40
44111;DHT22;29774;52.664;5.074;2022-08-01T15:41:28;23.10;55.30
44111;DHT22;29774;52.664;5.074;2022-08-01T15:43:53;23.10;49.50
44111;DHT22;29774;52.664;5.074;2022-08-01T15:46:19;22.40;57.30
44111;DHT22;29774;52.664;5.074;2022-08-01T15:48:45;23.00;50.90
44111;DHT22;29774;52.664;5.074;2022-08-01T15:51:11;23.20;51.30
44111;DHT22;29774;52.664;5.074;2022-08-01T15:53:36;22.60;52.10
44111;DHT22;29774;52.664;5.074;2022-08-01T15:56:02;22.60;52.40
44111;DHT22;29774;52.664;5.074;2022-08-01T15:58:28;22.70;49.00
44111;DHT22;29774;52.664;5.074;2022-08-01T16:00:53;22.80;50.00
44111;DHT22;29774;52.664;5.074;2022-08-01T16:03:19;22.00;50.30
44111;DHT22;29774;52.664;5.074;2022-08-01T16:05:46;23.20;51.40
44111;DHT22;29774;52.664;5.074;2022-08-01T16:08:14;23.50;50.60